DAL386 KDFW-KATL
Flight info
| Callsign | DAL386 |
|---|---|
| Flight time | 1h 34m |
| Altitude | 37000 |
| Route | TRYTN4 LOOSE MEMFS HUTCC KNSAW RUSSA GLAVN2 |
| Aircraft | A320/M-SDE3FGHIRWY/LB1 |
Departure
| Time | 2026-05-08 00:49 |
|---|---|
| Airport | Dallas Fort Worth International Airport (KDFW) |
Arrival
| Time | 2026-05-08 02:23 |
|---|---|
| Airport | Hartsfield Jackson Atlanta International Airport (KATL) |
| Time | Latitude | Longitude | Altitude | Speed | Heading |
|---|---|---|---|---|---|
| 2026-05-08 00:07 | 32.89037 | -97.03528 | 585 ft | 0 kts | 271° |
| 2026-05-08 00:38 | 32.89036 | -97.03508 | 584 ft | 4 kts | 271° |
| 2026-05-08 00:39 | 32.89036 | -97.03483 | 584 ft | 4 kts | 272° |
| 2026-05-08 00:39 | 32.89033 | -97.03452 | 584 ft | 4 kts | 297° |
| 2026-05-08 00:39 | 32.89020 | -97.03439 | 584 ft | 3 kts | 11° |
| 2026-05-08 00:39 | 32.88999 | -97.03444 | 584 ft | 0 kts | 11° |
| 2026-05-08 00:42 | 32.89005 | -97.03442 | 584 ft | 1 kts | 11° |
| 2026-05-08 00:42 | 32.89016 | -97.03440 | 584 ft | 5 kts | 11° |
| 2026-05-08 00:42 | 32.89038 | -97.03394 | 584 ft | 9 kts | 83° |
| 2026-05-08 00:43 | 32.89039 | -97.03319 | 582 ft | 10 kts | 90° |
| 2026-05-08 00:43 | 32.89047 | -97.03210 | 572 ft | 16 kts | 53° |
| 2026-05-08 00:43 | 32.89149 | -97.03196 | 574 ft | 15 kts | 360° |
| 2026-05-08 00:43 | 32.89250 | -97.03196 | 576 ft | 14 kts | 0° |
| 2026-05-08 00:44 | 32.89352 | -97.03195 | 577 ft | 18 kts | 0° |
| 2026-05-08 00:44 | 32.89488 | -97.03196 | 578 ft | 20 kts | 360° |
| 2026-05-08 00:44 | 32.89628 | -97.03195 | 580 ft | 21 kts | 0° |
| 2026-05-08 00:44 | 32.89781 | -97.03193 | 578 ft | 24 kts | 0° |
| 2026-05-08 00:45 | 32.89953 | -97.03193 | 578 ft | 25 kts | 0° |
| 2026-05-08 00:45 | 32.90137 | -97.03191 | 575 ft | 28 kts | 0° |
| 2026-05-08 00:45 | 32.90340 | -97.03191 | 573 ft | 30 kts | 0° |
| 2026-05-08 00:45 | 32.90548 | -97.03189 | 574 ft | 30 kts | 0° |
| 2026-05-08 00:46 | 32.90761 | -97.03190 | 576 ft | 30 kts | 0° |
| 2026-05-08 00:46 | 32.90955 | -97.03188 | 579 ft | 27 kts | 0° |
| 2026-05-08 00:46 | 32.91138 | -97.03187 | 579 ft | 24 kts | 2° |
| 2026-05-08 00:46 | 32.91299 | -97.03185 | 580 ft | 22 kts | 359° |
| 2026-05-08 00:47 | 32.91459 | -97.03187 | 576 ft | 23 kts | 360° |
| 2026-05-08 00:47 | 32.91556 | -97.03165 | 575 ft | 11 kts | 60° |
| 2026-05-08 00:47 | 32.91561 | -97.03038 | 576 ft | 19 kts | 91° |
| 2026-05-08 00:47 | 32.91503 | -97.02988 | 578 ft | 7 kts | 177° |
| 2026-05-08 00:48 | 32.91437 | -97.02988 | 578 ft | 23 kts | 180° |
| 2026-05-08 00:48 | 32.91004 | -97.02991 | 578 ft | 98 kts | 180° |
| 2026-05-08 00:48 | 32.90114 | -97.02995 | 574 ft | 156 kts | 180° |
| 2026-05-08 00:48 | 32.88922 | -97.02998 | 904 ft | 175 kts | 181° |
| 2026-05-08 00:49 | 32.87690 | -97.03017 | 1620 ft | 179 kts | 181° |
| 2026-05-08 00:49 | 32.86435 | -97.03001 | 2354 ft | 182 kts | 178° |
| 2026-05-08 00:49 | 32.85105 | -97.02903 | 2737 ft | 203 kts | 170° |
| 2026-05-08 00:49 | 32.83706 | -97.02268 | 3049 ft | 228 kts | 156° |
| 2026-05-08 00:50 | 32.82179 | -97.01463 | 3483 ft | 252 kts | 157° |
| 2026-05-08 00:50 | 32.80512 | -97.00616 | 4133 ft | 266 kts | 158° |
| 2026-05-08 00:50 | 32.78855 | -96.99600 | 4974 ft | 272 kts | 141° |
| 2026-05-08 00:50 | 32.77708 | -96.97804 | 5796 ft | 279 kts | 114° |
| 2026-05-08 00:51 | 32.77007 | -96.95643 | 6653 ft | 282 kts | 110° |
| 2026-05-08 00:51 | 32.76575 | -96.93356 | 7459 ft | 287 kts | 95° |
| 2026-05-08 00:51 | 32.76599 | -96.90970 | 8243 ft | 291 kts | 87° |
| 2026-05-08 00:51 | 32.76700 | -96.88551 | 9007 ft | 295 kts | 88° |
| 2026-05-08 00:52 | 32.76790 | -96.86100 | 9738 ft | 299 kts | 88° |
| 2026-05-08 00:52 | 32.76907 | -96.83641 | 10279 ft | 310 kts | 83° |
| 2026-05-08 00:52 | 32.77396 | -96.81053 | 10454 ft | 332 kts | 72° |
| 2026-05-08 00:52 | 32.78112 | -96.78350 | 10931 ft | 342 kts | 72° |
| 2026-05-08 00:53 | 32.78819 | -96.75672 | 11524 ft | 347 kts | 73° |
| 2026-05-08 00:53 | 32.79539 | -96.72920 | 12123 ft | 350 kts | 73° |
| 2026-05-08 00:53 | 32.80261 | -96.70142 | 12702 ft | 354 kts | 73° |
| 2026-05-08 00:53 | 32.80989 | -96.67331 | 13253 ft | 357 kts | 73° |
| 2026-05-08 00:54 | 32.81725 | -96.64490 | 13784 ft | 361 kts | 73° |
| 2026-05-08 00:54 | 32.82473 | -96.61586 | 14303 ft | 364 kts | 73° |
| 2026-05-08 00:54 | 32.83208 | -96.58732 | 14789 ft | 367 kts | 73° |
| 2026-05-08 00:54 | 32.83959 | -96.55818 | 15258 ft | 370 kts | 73° |
| 2026-05-08 00:55 | 32.84716 | -96.52877 | 15711 ft | 373 kts | 73° |
| 2026-05-08 00:55 | 32.85474 | -96.49912 | 16148 ft | 376 kts | 73° |
| 2026-05-08 00:55 | 32.86239 | -96.46923 | 16563 ft | 379 kts | 73° |
| 2026-05-08 00:55 | 32.87012 | -96.43917 | 16961 ft | 382 kts | 73° |
| 2026-05-08 00:56 | 32.87791 | -96.40888 | 17344 ft | 384 kts | 73° |
| 2026-05-08 00:56 | 32.88573 | -96.37838 | 17710 ft | 387 kts | 73° |
| 2026-05-08 00:56 | 32.89360 | -96.34763 | 18066 ft | 389 kts | 73° |
| 2026-05-08 00:56 | 32.90184 | -96.31685 | 18411 ft | 392 kts | 71° |
| 2026-05-08 00:57 | 32.91114 | -96.28629 | 18747 ft | 394 kts | 69° |
| 2026-05-08 00:57 | 32.92113 | -96.25581 | 19067 ft | 396 kts | 68° |
| 2026-05-08 00:57 | 32.93147 | -96.22532 | 19377 ft | 398 kts | 68° |
| 2026-05-08 00:57 | 32.94190 | -96.19468 | 19676 ft | 401 kts | 68° |
| 2026-05-08 00:58 | 32.95228 | -96.16378 | 19967 ft | 403 kts | 68° |
| 2026-05-08 00:58 | 32.96257 | -96.13269 | 20249 ft | 405 kts | 69° |
| 2026-05-08 00:58 | 32.97277 | -96.10136 | 20519 ft | 407 kts | 69° |
| 2026-05-08 00:58 | 32.98290 | -96.06982 | 20779 ft | 409 kts | 69° |
| 2026-05-08 00:59 | 32.99304 | -96.03813 | 21034 ft | 411 kts | 69° |
| 2026-05-08 00:59 | 33.00320 | -96.00629 | 21274 ft | 412 kts | 69° |
| 2026-05-08 00:59 | 33.01346 | -95.97431 | 21508 ft | 414 kts | 69° |
| 2026-05-08 00:59 | 33.02377 | -95.94221 | 21736 ft | 416 kts | 69° |
| 2026-05-08 01:00 | 33.03411 | -95.90996 | 21957 ft | 417 kts | 69° |
| 2026-05-08 01:00 | 33.04449 | -95.87762 | 22168 ft | 419 kts | 69° |
| 2026-05-08 01:00 | 33.05494 | -95.84514 | 22377 ft | 420 kts | 69° |
| 2026-05-08 01:00 | 33.06542 | -95.81257 | 22574 ft | 422 kts | 69° |
| 2026-05-08 01:01 | 33.07594 | -95.77981 | 22765 ft | 423 kts | 69° |
| 2026-05-08 01:01 | 33.08647 | -95.74699 | 22955 ft | 425 kts | 69° |
| 2026-05-08 01:01 | 33.09690 | -95.71444 | 23136 ft | 426 kts | 69° |
| 2026-05-08 01:01 | 33.10750 | -95.68137 | 23313 ft | 428 kts | 69° |
| 2026-05-08 01:02 | 33.11812 | -95.64819 | 23480 ft | 429 kts | 69° |
| 2026-05-08 01:02 | 33.12876 | -95.61491 | 23641 ft | 430 kts | 69° |
| 2026-05-08 01:02 | 33.13944 | -95.58151 | 23799 ft | 431 kts | 69° |
| 2026-05-08 01:02 | 33.15013 | -95.54801 | 23950 ft | 433 kts | 69° |
| 2026-05-08 01:03 | 33.16082 | -95.51443 | 24097 ft | 434 kts | 69° |
| 2026-05-08 01:03 | 33.17152 | -95.48074 | 24236 ft | 435 kts | 69° |
| 2026-05-08 01:03 | 33.18226 | -95.44694 | 24370 ft | 436 kts | 69° |
| 2026-05-08 01:03 | 33.19302 | -95.41310 | 24498 ft | 437 kts | 69° |
| 2026-05-08 01:04 | 33.20381 | -95.37915 | 24626 ft | 438 kts | 69° |
| 2026-05-08 01:04 | 33.21460 | -95.34510 | 24751 ft | 439 kts | 69° |
| 2026-05-08 01:04 | 33.22537 | -95.31099 | 24876 ft | 439 kts | 69° |
| 2026-05-08 01:04 | 33.23613 | -95.27684 | 25001 ft | 440 kts | 69° |
| 2026-05-08 01:05 | 33.24693 | -95.24265 | 25126 ft | 440 kts | 69° |
| 2026-05-08 01:05 | 33.25775 | -95.20847 | 25250 ft | 440 kts | 69° |
| 2026-05-08 01:05 | 33.26855 | -95.17425 | 25375 ft | 440 kts | 69° |
| 2026-05-08 01:05 | 33.27934 | -95.14001 | 25500 ft | 440 kts | 69° |
| 2026-05-08 01:06 | 33.29008 | -95.10578 | 25624 ft | 440 kts | 70° |
| 2026-05-08 01:06 | 33.30080 | -95.07154 | 25749 ft | 440 kts | 70° |
| 2026-05-08 01:06 | 33.31151 | -95.03729 | 25873 ft | 440 kts | 70° |
| 2026-05-08 01:06 | 33.32223 | -95.00307 | 25998 ft | 440 kts | 70° |
| 2026-05-08 01:07 | 33.33295 | -94.96885 | 26122 ft | 439 kts | 69° |
| 2026-05-08 01:07 | 33.34369 | -94.93465 | 26247 ft | 439 kts | 70° |
| 2026-05-08 01:07 | 33.35438 | -94.90046 | 26372 ft | 439 kts | 70° |
| 2026-05-08 01:07 | 33.36504 | -94.86627 | 26497 ft | 439 kts | 70° |
| 2026-05-08 01:08 | 33.37566 | -94.83211 | 26621 ft | 438 kts | 70° |
| 2026-05-08 01:08 | 33.38626 | -94.79791 | 26746 ft | 438 kts | 70° |
| 2026-05-08 01:08 | 33.39685 | -94.76376 | 26871 ft | 438 kts | 70° |
| 2026-05-08 01:08 | 33.40746 | -94.72959 | 26996 ft | 438 kts | 70° |
| 2026-05-08 01:09 | 33.41808 | -94.69545 | 27121 ft | 437 kts | 70° |
| 2026-05-08 01:09 | 33.42872 | -94.66134 | 27245 ft | 437 kts | 70° |
| 2026-05-08 01:09 | 33.43931 | -94.62725 | 27370 ft | 437 kts | 70° |
| 2026-05-08 01:09 | 33.44986 | -94.59314 | 27495 ft | 437 kts | 70° |
| 2026-05-08 01:10 | 33.46039 | -94.55901 | 27620 ft | 436 kts | 70° |
| 2026-05-08 01:10 | 33.47087 | -94.52491 | 27745 ft | 436 kts | 70° |
| 2026-05-08 01:10 | 33.48133 | -94.49083 | 27869 ft | 436 kts | 70° |
| 2026-05-08 01:10 | 33.49179 | -94.45676 | 27994 ft | 436 kts | 70° |
| 2026-05-08 01:11 | 33.50225 | -94.42272 | 28119 ft | 435 kts | 70° |
| 2026-05-08 01:11 | 33.51265 | -94.38884 | 28243 ft | 435 kts | 70° |
| 2026-05-08 01:11 | 33.52311 | -94.35467 | 28377 ft | 435 kts | 70° |
| 2026-05-08 01:11 | 33.52777 | -94.33943 | 28491 ft | 435 kts | 70° |
| 2026-05-08 01:12 | 33.53088 | -94.32926 | 27837 ft | 437 kts | 70° |
| 2026-05-08 01:12 | 33.54149 | -94.29448 | 27864 ft | 450 kts | 68° |
| 2026-05-08 01:12 | 33.55221 | -94.25935 | 28512 ft | 442 kts | 68° |
| 2026-05-08 01:12 | 33.56266 | -94.22488 | 29203 ft | 438 kts | 69° |
| 2026-05-08 01:13 | 33.57298 | -94.19046 | 29637 ft | 440 kts | 69° |
| 2026-05-08 01:13 | 33.58328 | -94.15583 | 30008 ft | 442 kts | 70° |
| 2026-05-08 01:13 | 33.59362 | -94.12093 | 30317 ft | 446 kts | 70° |
| 2026-05-08 01:13 | 33.60402 | -94.08582 | 30615 ft | 448 kts | 70° |
| 2026-05-08 01:14 | 33.61447 | -94.05050 | 30941 ft | 450 kts | 70° |
| 2026-05-08 01:14 | 33.62500 | -94.01498 | 31228 ft | 455 kts | 70° |
| 2026-05-08 01:14 | 33.63568 | -93.97897 | 31392 ft | 461 kts | 70° |
| 2026-05-08 01:14 | 33.64647 | -93.94256 | 31657 ft | 465 kts | 70° |
| 2026-05-08 01:15 | 33.65732 | -93.90593 | 31954 ft | 467 kts | 70° |
| 2026-05-08 01:15 | 33.66826 | -93.86909 | 32273 ft | 470 kts | 70° |
| 2026-05-08 01:15 | 33.67923 | -93.83205 | 32569 ft | 472 kts | 70° |
| 2026-05-08 01:15 | 33.69023 | -93.79482 | 32905 ft | 475 kts | 70° |
| 2026-05-08 01:16 | 33.70126 | -93.75734 | 33221 ft | 477 kts | 70° |
| 2026-05-08 01:16 | 33.71230 | -93.71975 | 33517 ft | 479 kts | 70° |
| 2026-05-08 01:16 | 33.72340 | -93.68189 | 33816 ft | 482 kts | 70° |
| 2026-05-08 01:16 | 33.73452 | -93.64382 | 34106 ft | 484 kts | 71° |
| 2026-05-08 01:17 | 33.74566 | -93.60558 | 34352 ft | 486 kts | 70° |
| 2026-05-08 01:17 | 33.75688 | -93.56714 | 34560 ft | 489 kts | 70° |
| 2026-05-08 01:17 | 33.76816 | -93.52848 | 34776 ft | 492 kts | 70° |
| 2026-05-08 01:17 | 33.77948 | -93.48963 | 34992 ft | 494 kts | 70° |
| 2026-05-08 01:18 | 33.79086 | -93.45054 | 35208 ft | 496 kts | 70° |
| 2026-05-08 01:18 | 33.80227 | -93.41129 | 35418 ft | 498 kts | 70° |
| 2026-05-08 01:18 | 33.81370 | -93.37187 | 35601 ft | 501 kts | 70° |
| 2026-05-08 01:18 | 33.82523 | -93.33215 | 35783 ft | 504 kts | 69° |
| 2026-05-08 01:19 | 33.83677 | -93.29235 | 35976 ft | 506 kts | 69° |
| 2026-05-08 01:19 | 33.84838 | -93.25227 | 36165 ft | 508 kts | 69° |
| 2026-05-08 01:19 | 33.86004 | -93.21205 | 36351 ft | 510 kts | 69° |
| 2026-05-08 01:19 | 33.87172 | -93.17163 | 36533 ft | 512 kts | 69° |
| 2026-05-08 01:20 | 33.88343 | -93.13103 | 36701 ft | 514 kts | 69° |
| 2026-05-08 01:20 | 33.89527 | -93.09032 | 36844 ft | 516 kts | 66° |
| 2026-05-08 01:20 | 33.90963 | -93.05077 | 37010 ft | 516 kts | 62° |
| 2026-05-08 01:21 | 33.93964 | -92.97134 | 37064 ft | 528 kts | 62° |
| 2026-05-08 01:21 | 33.97035 | -92.88996 | 37071 ft | 539 kts | 62° |
| 2026-05-08 01:22 | 34.00153 | -92.80684 | 37067 ft | 548 kts | 62° |
| 2026-05-08 01:22 | 34.03286 | -92.72293 | 37068 ft | 549 kts | 62° |
| 2026-05-08 01:23 | 34.06421 | -92.63890 | 37068 ft | 549 kts | 62° |
| 2026-05-08 01:23 | 34.09547 | -92.55508 | 37068 ft | 548 kts | 62° |
| 2026-05-08 01:24 | 34.12668 | -92.47116 | 37074 ft | 548 kts | 62° |
| 2026-05-08 01:24 | 34.15756 | -92.38780 | 37076 ft | 548 kts | 62° |
| 2026-05-08 01:25 | 34.18862 | -92.30373 | 37076 ft | 548 kts | 62° |
| 2026-05-08 01:25 | 34.21473 | -92.21726 | 37068 ft | 552 kts | 82° |
| 2026-05-08 01:26 | 34.22375 | -92.12529 | 37055 ft | 552 kts | 85° |
| 2026-05-08 01:26 | 34.23191 | -92.03290 | 37057 ft | 553 kts | 85° |
| 2026-05-08 01:27 | 34.24000 | -91.94032 | 37062 ft | 554 kts | 85° |
| 2026-05-08 01:27 | 34.24814 | -91.84760 | 37077 ft | 555 kts | 85° |
| 2026-05-08 01:28 | 34.25624 | -91.75478 | 37075 ft | 556 kts | 85° |
| 2026-05-08 01:28 | 34.26427 | -91.66180 | 37083 ft | 556 kts | 85° |
| 2026-05-08 01:29 | 34.27228 | -91.56883 | 37080 ft | 556 kts | 85° |
| 2026-05-08 01:29 | 34.27890 | -91.49152 | 37098 ft | 557 kts | 85° |
| 2026-05-08 01:30 | 34.28675 | -91.39834 | 37097 ft | 557 kts | 85° |
| 2026-05-08 01:30 | 34.29446 | -91.30510 | 37096 ft | 557 kts | 85° |
| 2026-05-08 01:31 | 34.30223 | -91.21180 | 37089 ft | 558 kts | 85° |
| 2026-05-08 01:31 | 34.30997 | -91.11845 | 37098 ft | 558 kts | 85° |
| 2026-05-08 01:32 | 34.31753 | -91.02517 | 37097 ft | 558 kts | 85° |
| 2026-05-08 01:32 | 34.32493 | -90.93177 | 37094 ft | 557 kts | 85° |
| 2026-05-08 01:33 | 34.33237 | -90.83848 | 37102 ft | 557 kts | 85° |
| 2026-05-08 01:33 | 34.33978 | -90.74510 | 37106 ft | 557 kts | 85° |
| 2026-05-08 01:34 | 34.34702 | -90.65172 | 37106 ft | 557 kts | 85° |
| 2026-05-08 01:34 | 34.35426 | -90.55836 | 37107 ft | 557 kts | 85° |
| 2026-05-08 01:35 | 34.36145 | -90.46496 | 37107 ft | 557 kts | 85° |
| 2026-05-08 01:35 | 34.36853 | -90.37210 | 37090 ft | 557 kts | 85° |
| 2026-05-08 01:36 | 34.37556 | -90.27874 | 37096 ft | 557 kts | 85° |
| 2026-05-08 01:36 | 34.38248 | -90.18526 | 37092 ft | 557 kts | 85° |
| 2026-05-08 01:37 | 34.38933 | -90.09194 | 37075 ft | 557 kts | 85° |
| 2026-05-08 01:37 | 34.39621 | -89.99854 | 37091 ft | 557 kts | 85° |
| 2026-05-08 01:38 | 34.40300 | -89.90511 | 37089 ft | 557 kts | 85° |
| 2026-05-08 01:38 | 34.40955 | -89.81162 | 37088 ft | 558 kts | 85° |
| 2026-05-08 01:39 | 34.41612 | -89.71808 | 37084 ft | 558 kts | 85° |
| 2026-05-08 01:39 | 34.42266 | -89.62441 | 37115 ft | 558 kts | 85° |
| 2026-05-08 01:40 | 34.42916 | -89.53076 | 37117 ft | 558 kts | 85° |
| 2026-05-08 01:40 | 34.43549 | -89.43707 | 37116 ft | 558 kts | 85° |
| 2026-05-08 01:41 | 34.44176 | -89.34331 | 37102 ft | 558 kts | 85° |
| 2026-05-08 01:41 | 34.44802 | -89.24963 | 37098 ft | 558 kts | 85° |
| 2026-05-08 01:42 | 34.45421 | -89.15588 | 37083 ft | 558 kts | 85° |
| 2026-05-08 01:42 | 34.46032 | -89.06212 | 37081 ft | 558 kts | 85° |
| 2026-05-08 01:43 | 34.46636 | -88.96832 | 37084 ft | 558 kts | 85° |
| 2026-05-08 01:43 | 34.47234 | -88.87444 | 37115 ft | 559 kts | 86° |
| 2026-05-08 01:44 | 34.47814 | -88.78042 | 37061 ft | 560 kts | 86° |
| 2026-05-08 01:44 | 34.48396 | -88.68621 | 37057 ft | 561 kts | 86° |
| 2026-05-08 01:45 | 34.48977 | -88.59247 | 37057 ft | 562 kts | 86° |
| 2026-05-08 01:45 | 34.49550 | -88.49806 | 37065 ft | 562 kts | 86° |
| 2026-05-08 01:46 | 34.50113 | -88.40353 | 37062 ft | 562 kts | 86° |
| 2026-05-08 01:46 | 34.50665 | -88.30903 | 37070 ft | 562 kts | 86° |
| 2026-05-08 01:47 | 34.51220 | -88.21452 | 37076 ft | 562 kts | 86° |
| 2026-05-08 01:47 | 34.51767 | -88.11987 | 37075 ft | 562 kts | 86° |
| 2026-05-08 01:48 | 34.52550 | -87.97809 | 37069 ft | 562 kts | 86° |
| 2026-05-08 01:48 | 34.53074 | -87.88346 | 37071 ft | 562 kts | 86° |
| 2026-05-08 01:49 | 34.53593 | -87.78883 | 37075 ft | 562 kts | 86° |
| 2026-05-08 01:49 | 34.54107 | -87.69420 | 37076 ft | 562 kts | 86° |
| 2026-05-08 01:50 | 34.54620 | -87.59952 | 37073 ft | 562 kts | 86° |
| 2026-05-08 01:50 | 34.55117 | -87.50488 | 37073 ft | 563 kts | 86° |
| 2026-05-08 01:51 | 34.55597 | -87.41015 | 37071 ft | 560 kts | 86° |
| 2026-05-08 01:51 | 34.56064 | -87.31743 | 36736 ft | 544 kts | 86° |
| 2026-05-08 01:52 | 34.56289 | -87.27175 | 36207 ft | 542 kts | 86° |
| 2026-05-08 01:52 | 34.56510 | -87.22643 | 35430 ft | 547 kts | 87° |
| 2026-05-08 01:52 | 34.56734 | -87.18021 | 34678 ft | 551 kts | 88° |
| 2026-05-08 01:52 | 34.56949 | -87.13365 | 33921 ft | 554 kts | 91° |
| 2026-05-08 01:53 | 34.56796 | -87.08716 | 33296 ft | 547 kts | 101° |
| 2026-05-08 01:53 | 34.56149 | -87.04179 | 32925 ft | 547 kts | 107° |
| 2026-05-08 01:53 | 34.55372 | -86.99666 | 32236 ft | 547 kts | 106° |
| 2026-05-08 01:53 | 34.54599 | -86.95168 | 31792 ft | 541 kts | 107° |
| 2026-05-08 01:54 | 34.53617 | -86.90831 | 31438 ft | 529 kts | 113° |
| 2026-05-08 01:54 | 34.52529 | -86.86593 | 31063 ft | 523 kts | 113° |
| 2026-05-08 01:54 | 34.51448 | -86.82407 | 30700 ft | 518 kts | 113° |
| 2026-05-08 01:54 | 34.50370 | -86.78253 | 30336 ft | 515 kts | 112° |
| 2026-05-08 01:55 | 34.49290 | -86.74121 | 29957 ft | 514 kts | 112° |
| 2026-05-08 01:55 | 34.48211 | -86.70002 | 29592 ft | 511 kts | 112° |
| 2026-05-08 01:55 | 34.47142 | -86.65914 | 29237 ft | 507 kts | 112° |
| 2026-05-08 01:55 | 34.46065 | -86.61798 | 28875 ft | 503 kts | 112° |
| 2026-05-08 01:56 | 34.45010 | -86.57774 | 28540 ft | 499 kts | 112° |
| 2026-05-08 01:56 | 34.43975 | -86.53836 | 28280 ft | 496 kts | 112° |
| 2026-05-08 01:56 | 34.42933 | -86.49870 | 28026 ft | 494 kts | 112° |
| 2026-05-08 01:56 | 34.41895 | -86.45922 | 27714 ft | 488 kts | 113° |
| 2026-05-08 01:57 | 34.40874 | -86.42044 | 27461 ft | 480 kts | 113° |
| 2026-05-08 01:57 | 34.39863 | -86.38213 | 27334 ft | 476 kts | 113° |
| 2026-05-08 01:57 | 34.38854 | -86.34405 | 27255 ft | 475 kts | 113° |
| 2026-05-08 01:57 | 34.37842 | -86.30598 | 27061 ft | 474 kts | 113° |
| 2026-05-08 01:58 | 34.36836 | -86.26810 | 26989 ft | 473 kts | 113° |
| 2026-05-08 01:58 | 34.35829 | -86.23027 | 26711 ft | 471 kts | 113° |
| 2026-05-08 01:58 | 34.34827 | -86.19264 | 26612 ft | 469 kts | 114° |
| 2026-05-08 01:58 | 34.33826 | -86.15507 | 26556 ft | 469 kts | 113° |
| 2026-05-08 01:59 | 34.32829 | -86.11742 | 26512 ft | 470 kts | 113° |
| 2026-05-08 01:59 | 34.31849 | -86.07980 | 26463 ft | 470 kts | 112° |
| 2026-05-08 01:59 | 34.30875 | -86.04198 | 26411 ft | 470 kts | 112° |
| 2026-05-08 01:59 | 34.29908 | -86.00427 | 26277 ft | 470 kts | 112° |
| 2026-05-08 02:00 | 34.28924 | -85.96622 | 25463 ft | 479 kts | 112° |
| 2026-05-08 02:00 | 34.27933 | -85.92799 | 25074 ft | 474 kts | 112° |
| 2026-05-08 02:00 | 34.26949 | -85.89002 | 24584 ft | 473 kts | 112° |
| 2026-05-08 02:00 | 34.25965 | -85.85210 | 24106 ft | 472 kts | 112° |
| 2026-05-08 02:01 | 34.24980 | -85.81432 | 23617 ft | 471 kts | 112° |
| 2026-05-08 02:01 | 34.23993 | -85.77669 | 23082 ft | 469 kts | 112° |
| 2026-05-08 02:01 | 34.23012 | -85.73937 | 22652 ft | 464 kts | 112° |
| 2026-05-08 02:01 | 34.22039 | -85.70229 | 22237 ft | 459 kts | 111° |
| 2026-05-08 02:02 | 34.21079 | -85.66555 | 21747 ft | 457 kts | 111° |
| 2026-05-08 02:02 | 34.20129 | -85.62919 | 21285 ft | 454 kts | 111° |
| 2026-05-08 02:02 | 34.19179 | -85.59305 | 20943 ft | 448 kts | 111° |
| 2026-05-08 02:02 | 34.18235 | -85.55740 | 20513 ft | 444 kts | 111° |
| 2026-05-08 02:03 | 34.17293 | -85.52198 | 20069 ft | 441 kts | 111° |
| 2026-05-08 02:03 | 34.16359 | -85.48685 | 19678 ft | 438 kts | 111° |
| 2026-05-08 02:03 | 34.15432 | -85.45199 | 19287 ft | 434 kts | 110° |
| 2026-05-08 02:03 | 34.14520 | -85.41760 | 18658 ft | 428 kts | 110° |
| 2026-05-08 02:04 | 34.13624 | -85.38365 | 18136 ft | 422 kts | 110° |
| 2026-05-08 02:04 | 34.12746 | -85.34988 | 17622 ft | 421 kts | 109° |
| 2026-05-08 02:04 | 34.11879 | -85.31630 | 17247 ft | 417 kts | 110° |
| 2026-05-08 02:04 | 34.11020 | -85.28293 | 16843 ft | 415 kts | 110° |
| 2026-05-08 02:05 | 34.10165 | -85.24974 | 16438 ft | 413 kts | 110° |
| 2026-05-08 02:05 | 34.09312 | -85.21669 | 16027 ft | 412 kts | 110° |
| 2026-05-08 02:05 | 34.08459 | -85.18384 | 15628 ft | 410 kts | 110° |
| 2026-05-08 02:05 | 34.07618 | -85.15159 | 15282 ft | 406 kts | 109° |
| 2026-05-08 02:06 | 34.06758 | -85.11879 | 14873 ft | 404 kts | 109° |
| 2026-05-08 02:06 | 34.05899 | -85.08669 | 14505 ft | 401 kts | 113° |
| 2026-05-08 02:06 | 34.04693 | -85.05735 | 14215 ft | 391 kts | 127° |
| 2026-05-08 02:06 | 34.03014 | -85.03147 | 13806 ft | 382 kts | 141° |
| 2026-05-08 02:07 | 34.01067 | -85.01043 | 13540 ft | 371 kts | 146° |
| 2026-05-08 02:07 | 33.99134 | -84.99027 | 13305 ft | 364 kts | 146° |
| 2026-05-08 02:07 | 33.97263 | -84.97078 | 13082 ft | 357 kts | 146° |
| 2026-05-08 02:07 | 33.95376 | -84.95118 | 12857 ft | 351 kts | 147° |
| 2026-05-08 02:08 | 33.93535 | -84.93210 | 12634 ft | 348 kts | 147° |
| 2026-05-08 02:08 | 33.91734 | -84.91344 | 12418 ft | 345 kts | 147° |
| 2026-05-08 02:08 | 33.89916 | -84.89466 | 12198 ft | 343 kts | 147° |
| 2026-05-08 02:08 | 33.88085 | -84.87577 | 12028 ft | 342 kts | 147° |
| 2026-05-08 02:09 | 33.86312 | -84.85745 | 12014 ft | 341 kts | 147° |
| 2026-05-08 02:09 | 33.84511 | -84.83884 | 11989 ft | 341 kts | 147° |
| 2026-05-08 02:09 | 33.82711 | -84.82027 | 12011 ft | 342 kts | 147° |
| 2026-05-08 02:09 | 33.80902 | -84.80166 | 12012 ft | 342 kts | 147° |
| 2026-05-08 02:10 | 33.79092 | -84.78301 | 12013 ft | 342 kts | 147° |
| 2026-05-08 02:10 | 33.77286 | -84.76440 | 12009 ft | 342 kts | 147° |
| 2026-05-08 02:10 | 33.75533 | -84.74501 | 12007 ft | 348 kts | 137° |
| 2026-05-08 02:10 | 33.74169 | -84.72059 | 11999 ft | 357 kts | 119° |
| 2026-05-08 02:11 | 33.73401 | -84.69209 | 12002 ft | 362 kts | 100° |
| 2026-05-08 02:11 | 33.73266 | -84.66203 | 12002 ft | 358 kts | 89° |
| 2026-05-08 02:11 | 33.73279 | -84.63271 | 12000 ft | 343 kts | 89° |
| 2026-05-08 02:11 | 33.73288 | -84.60468 | 12000 ft | 327 kts | 89° |
| 2026-05-08 02:12 | 33.73296 | -84.57775 | 11844 ft | 319 kts | 89° |
| 2026-05-08 02:12 | 33.73300 | -84.55136 | 11551 ft | 314 kts | 89° |
| 2026-05-08 02:12 | 33.73303 | -84.52525 | 11202 ft | 311 kts | 89° |
| 2026-05-08 02:12 | 33.73301 | -84.49948 | 10821 ft | 308 kts | 90° |
| 2026-05-08 02:13 | 33.73296 | -84.47380 | 10440 ft | 306 kts | 89° |
| 2026-05-08 02:13 | 33.73292 | -84.44849 | 10068 ft | 302 kts | 89° |
| 2026-05-08 02:13 | 33.73290 | -84.42345 | 9670 ft | 297 kts | 89° |
| 2026-05-08 02:13 | 33.73292 | -84.39883 | 9259 ft | 293 kts | 90° |
| 2026-05-08 02:14 | 33.73294 | -84.37437 | 8834 ft | 293 kts | 90° |
| 2026-05-08 02:14 | 33.73295 | -84.34999 | 8434 ft | 291 kts | 90° |
| 2026-05-08 02:14 | 33.73294 | -84.32588 | 8036 ft | 286 kts | 90° |
| 2026-05-08 02:14 | 33.73294 | -84.30213 | 7644 ft | 282 kts | 90° |
| 2026-05-08 02:15 | 33.73294 | -84.27885 | 7257 ft | 276 kts | 90° |
| 2026-05-08 02:15 | 33.73297 | -84.25607 | 6876 ft | 273 kts | 89° |
| 2026-05-08 02:15 | 33.73301 | -84.23335 | 6497 ft | 271 kts | 90° |
| 2026-05-08 02:15 | 33.73302 | -84.21063 | 6105 ft | 273 kts | 90° |
| 2026-05-08 02:16 | 33.73301 | -84.18781 | 5705 ft | 273 kts | 89° |
| 2026-05-08 02:16 | 33.73250 | -84.16496 | 5304 ft | 274 kts | 100° |
| 2026-05-08 02:16 | 33.72550 | -84.14437 | 4957 ft | 260 kts | 131° |
| 2026-05-08 02:16 | 33.71210 | -84.13148 | 4613 ft | 241 kts | 163° |
| 2026-05-08 02:17 | 33.69618 | -84.12599 | 4262 ft | 237 kts | 173° |
| 2026-05-08 02:17 | 33.68548 | -84.12337 | 4079 ft | 236 kts | 173° |
| 2026-05-08 02:17 | 33.66954 | -84.12254 | 3978 ft | 225 kts | 199° |
| 2026-05-08 02:17 | 33.65645 | -84.13144 | 3986 ft | 214 kts | 233° |
| 2026-05-08 02:18 | 33.64833 | -84.14618 | 3995 ft | 211 kts | 250° |
| 2026-05-08 02:18 | 33.64539 | -84.16303 | 3917 ft | 203 kts | 271° |
| 2026-05-08 02:18 | 33.64617 | -84.17940 | 3864 ft | 189 kts | 278° |
| 2026-05-08 02:18 | 33.64782 | -84.19458 | 3845 ft | 180 kts | 280° |
| 2026-05-08 02:19 | 33.64906 | -84.20939 | 3768 ft | 178 kts | 272° |
| 2026-05-08 02:19 | 33.64885 | -84.22421 | 3691 ft | 177 kts | 272° |
| 2026-05-08 02:19 | 33.64868 | -84.23899 | 3589 ft | 177 kts | 272° |
| 2026-05-08 02:19 | 33.64890 | -84.25377 | 3433 ft | 177 kts | 274° |
| 2026-05-08 02:20 | 33.64926 | -84.26852 | 3262 ft | 177 kts | 273° |
| 2026-05-08 02:20 | 33.64915 | -84.28322 | 3194 ft | 176 kts | 272° |
| 2026-05-08 02:20 | 33.64911 | -84.29762 | 2960 ft | 168 kts | 274° |
| 2026-05-08 02:20 | 33.64910 | -84.31140 | 2667 ft | 161 kts | 274° |
| 2026-05-08 02:21 | 33.64920 | -84.32464 | 2436 ft | 154 kts | 274° |
| 2026-05-08 02:21 | 33.64916 | -84.33688 | 2284 ft | 140 kts | 274° |
| 2026-05-08 02:21 | 33.64923 | -84.34831 | 2055 ft | 134 kts | 275° |
| 2026-05-08 02:21 | 33.64928 | -84.35942 | 1880 ft | 132 kts | 275° |
| 2026-05-08 02:22 | 33.64932 | -84.37046 | 1729 ft | 133 kts | 275° |
| 2026-05-08 02:22 | 33.64939 | -84.38150 | 1563 ft | 133 kts | 274° |
| 2026-05-08 02:22 | 33.64945 | -84.39262 | 1333 ft | 133 kts | 272° |
| 2026-05-08 02:22 | 33.64948 | -84.40381 | 1177 ft | 135 kts | 271° |
| 2026-05-08 02:23 | 33.64953 | -84.41497 | 1041 ft | 129 kts | 272° |
| 2026-05-08 02:23 | 33.64953 | -84.42409 | 1036 ft | 85 kts | 270° |
| 2026-05-08 02:23 | 33.64952 | -84.42916 | 1035 ft | 40 kts | 269° |
| 2026-05-08 02:23 | 33.64923 | -84.43196 | 1036 ft | 30 kts | 249° |
| 2026-05-08 02:24 | 33.64862 | -84.43339 | 1035 ft | 18 kts | 246° |
| 2026-05-08 02:24 | 33.64844 | -84.43486 | 1036 ft | 19 kts | 271° |
| 2026-05-08 02:24 | 33.64845 | -84.43648 | 1036 ft | 20 kts | 270° |
| 2026-05-08 02:24 | 33.64843 | -84.43824 | 1035 ft | 19 kts | 263° |
| 2026-05-08 02:25 | 33.64786 | -84.43955 | 1035 ft | 18 kts | 255° |
| 2026-05-08 02:25 | 33.64784 | -84.44115 | 1035 ft | 20 kts | 270° |
| 2026-05-08 02:25 | 33.64777 | -84.44268 | 1035 ft | 16 kts | 250° |
| 2026-05-08 02:25 | 33.64679 | -84.44338 | 1035 ft | 18 kts | 182° |
| 2026-05-08 02:26 | 33.64581 | -84.44268 | 1035 ft | 15 kts | 113° |
| 2026-05-08 02:26 | 33.64570 | -84.44153 | 1035 ft | 13 kts | 110° |
| 2026-05-08 02:26 | 33.64500 | -84.44099 | 1035 ft | 11 kts | 160° |
| 2026-05-08 02:26 | 33.64430 | -84.44063 | 1035 ft | 11 kts | 158° |
| 2026-05-08 02:27 | 33.64354 | -84.44052 | 1035 ft | 12 kts | 181° |
| 2026-05-08 02:27 | 33.64274 | -84.44052 | 1035 ft | 11 kts | 180° |
| 2026-05-08 02:27 | 33.64212 | -84.44032 | 1035 ft | 9 kts | 113° |
| 2026-05-08 02:27 | 33.64209 | -84.43967 | 1035 ft | 3 kts | 90° |
| 2026-05-08 02:28 | 33.64209 | -84.43965 | 1036 ft | 0 kts | 89° |